Main page
METAR-TAF:

METAR-TAF

Airports :

Bournemouth, England

Bournemouth Airport

latitude: 50-47N, longitude: 001-50W, elevation: 11 m

Current weather observation

The report was made 22 minutes ago, at 19:50 UTC
Wind 3 kt from the North/Northwest
Temperature -1°C
Humidity 100%
Pressure 1033 hPa
Visibility: 3000 m
Shallow fog

METAR: EGHH 181950Z 34003KT 3000 MIFG NSC M01/M01 Q1033

Time: 20:12 (20:12 UTC)

Forecast

The report was made 3 hours and 16 minutes ago, at 16:56 UTC
Forecast valid from 18 at 18 UTC to 19 at 03 UTC
Wind 7 kt from the North
Visibility 10 km or more
Few clouds at a height of 4500 ft
Becoming
from 18 at 18 UTC to 18 at 20 UTC
Visibility: 3000 m
mist
Probability 40%
from 18 at 18 UTC to 18 at 21 UTC
Visibility: 0300 m
fog
Becoming
from 18 at 21 UTC to 18 at 24 UTC
Visibility: 0300 m
fog

TAF: EGHH 181656Z 1818/1903 01007KT 9999 FEW045 BECMG 1818/1820 3000 BR PROB40 1818/1821 0300 FG VV/// BECMG 1821/1824 0300 FG VV///

Weather observations and forecasts of more than 4000 airports (METAR and TAF reports).

The available stations are represented by yellow and red dots on the map.

Hover mouse over dot to see the name of the station.

Then click to see weather observations and forecasts.

To change the map : click on the green buttons with a black cross to zoom in, on the green button with a dash to zoom out, or on the green arrows for adjacent maps.


METAR-TAF: